Time;durP1;ratioP1;P1;durP2;ratioP2;P2;SDS_P1;SDS_P2;PMS_P1;PMS_P2;Temp;Humidity;BMP_temperature;BMP_pressure;BME280_temperature;BME280_humidity;BME280_pressure;Samples;Min_cycle;Max_cycle;Signal;HPM_P1;HPM_P2
2023/05/02 00:00:22;;;;;;;9.90;4.20;;;;;;;19.08;51.80;102150.78;5050643;28;20028;-69
2023/05/02 00:02:48;;;;;;;10.37;3.87;;;;;;;18.47;52.61;102156.56;5052634;28;20090;-69
2023/05/02 00:05:13;;;;;;;9.97;4.10;;;;;;;19.69;50.61;102152.75;5049148;28;20040;-69
2023/05/02 00:07:39;;;;;;;8.07;3.07;;;;;;;19.09;51.28;102152.50;5050025;28;20060;-69
2023/05/02 00:10:04;;;;;;;11.83;4.00;;;;;;;19.55;49.71;102149.56;5050614;28;20021;-69
2023/05/02 00:12:30;;;;;;;10.23;4.13;;;;;;;19.44;49.99;102140.16;5051709;28;20033;-69
2023/05/02 00:14:55;;;;;;;10.53;4.30;;;;;;;19.20;50.98;102148.72;5052244;28;20496;-70
2023/05/02 00:17:21;;;;;;;10.03;4.70;;;;;;;19.89;49.09;102154.00;5034166;28;20036;-69
2023/05/02 00:19:46;;;;;;;10.87;3.87;;;;;;;18.98;52.35;102151.91;5040561;28;20032;-69
2023/05/02 00:22:12;;;;;;;9.07;4.07;;;;;;;18.80;52.26;102154.06;5048117;28;20024;-70
2023/05/02 00:24:37;;;;;;;13.37;4.67;;;;;;;19.65;50.48;102156.38;5050990;28;20531;-69
2023/05/02 00:27:05;;;;;;;13.00;4.00;;;;;;;18.63;52.96;102164.19;5049991;28;20116;-69
2023/05/02 00:29:30;;;;;;;10.37;4.00;;;;;;;18.85;52.39;102163.66;5050694;28;20021;-70
2023/05/02 00:31:56;;;;;;;9.03;4.07;;;;;;;18.31;54.15;102165.75;5046255;28;20031;-70
2023/05/02 00:34:22;;;;;;;9.70;3.90;;;;;;;19.28;51.03;102167.97;5049278;28;20503;-70
2023/05/02 00:36:48;;;;;;;9.67;4.47;;;;;;;19.37;51.69;102165.09;5051988;28;20017;-69
2023/05/02 00:39:13;;;;;;;14.87;3.63;;;;;;;18.32;54.02;102162.22;5050002;28;20079;-70
2023/05/02 00:41:38;;;;;;;9.33;4.10;;;;;;;18.72;53.47;102163.97;5048819;28;20400;-70
2023/05/02 00:44:04;;;;;;;6.83;3.37;;;;;;;19.50;50.85;102152.38;5050612;28;20025;-70
2023/05/02 00:46:30;;;;;;;11.53;4.13;;;;;;;19.65;50.32;102151.09;5049696;28;20029;-71
2023/05/02 00:48:55;;;;;;;6.57;2.83;;;;;;;19.50;50.36;102155.88;5049548;28;20452;-70
2023/05/02 00:51:21;;;;;;;12.63;3.43;;;;;;;19.09;51.91;102157.81;5046831;28;20481;-71
2023/05/02 00:53:46;;;;;;;8.67;3.87;;;;;;;19.34;51.65;102167.78;5050083;28;20564;-69
2023/05/02 00:56:12;;;;;;;6.53;3.20;;;;;;;18.77;52.94;102172.69;5050243;28;20049;-69
2023/05/02 00:58:39;;;;;;;7.13;3.17;;;;;;;18.48;54.42;102174.22;5051309;28;20407;-71
2023/05/02 01:01:23;;;;;;;8.60;3.97;;;;;;;18.68;53.01;102172.88;5049157;28;20024;-69
2023/05/02 01:04:07;;;;;;;6.13;2.20;;;;;;;17.81;58.23;102179.06;5046283;28;20026;-69
2023/05/02 01:06:45;;;;;;;2.70;2.17;;;;;;;18.12;56.03;102183.78;5046780;28;20079;-70
2023/05/02 01:09:38;;;;;;;4.33;2.67;;;;;;;17.99;57.22;102180.53;5030276;28;20792;-71
2023/05/02 01:12:36;;;;;;;6.37;2.63;;;;;;;18.59;54.80;102189.00;5029813;28;20543;-70
2023/05/02 01:15:06;;;;;;;2.83;1.93;;;;;;;17.37;58.53;102186.91;5017757;28;20037;-70
2023/05/02 01:17:33;;;;;;;5.40;2.27;;;;;;;17.32;59.41;102191.38;5044751;28;20115;-69
2023/05/02 01:20:04;;;;;;;1.57;1.30;;;;;;;17.02;59.95;102196.28;5051455;28;20035;-70
2023/05/02 01:22:30;;;;;;;2.63;1.40;;;;;;;17.24;58.77;102190.63;5039929;28;20583;-70
2023/05/02 01:25:15;;;;;;;2.67;1.43;;;;;;;17.16;57.19;102201.34;5029549;28;20022;-69
2023/05/02 01:28:02;;;;;;;7.30;1.57;;;;;;;17.80;55.73;102204.66;5037902;28;20397;-70
2023/05/02 01:30:29;;;;;;;2.97;1.20;;;;;;;16.79;57.58;102205.38;5048474;28;20024;-69
2023/05/02 01:32:57;;;;;;;1.30;1.20;;;;;;;17.10;57.45;102209.34;5049498;28;20473;-70
2023/05/02 01:35:25;;;;;;;2.20;1.20;;;;;;;17.36;55.62;102202.78;5047226;28;20039;-69
2023/05/02 01:37:52;;;;;;;1.87;1.30;;;;;;;17.51;55.63;102206.94;5047870;28;20021;-70
2023/05/02 01:40:20;;;;;;;1.40;1.10;;;;;;;18.25;53.53;102202.94;5048711;28;20361;-69
2023/05/02 01:42:48;;;;;;;2.57;1.00;;;;;;;17.17;54.16;102212.78;5049338;28;20025;-69
2023/05/02 01:45:16;;;;;;;5.60;1.30;;;;;;;18.77;50.86;102200.94;5048274;28;20017;-70
2023/05/02 01:47:43;;;;;;;2.03;1.33;;;;;;;18.95;51.09;102210.28;5040505;28;20537;-68
2023/05/02 01:50:12;;;;;;;3.60;1.63;;;;;;;17.95;53.84;102213.22;5028632;28;20034;-68
2023/05/02 01:52:39;;;;;;;2.30;1.13;;;;;;;17.64;55.53;102224.34;5029489;28;20049;-68
2023/05/02 01:55:10;;;;;;;2.77;1.33;;;;;;;18.54;52.98;102220.84;5034668;28;20388;-68
2023/05/02 01:57:38;;;;;;;3.83;0.97;;;;;;;17.91;53.94;102228.28;5048504;28;20123;-68
2023/05/02 02:00:05;;;;;;;6.10;1.30;;;;;;;18.44;51.58;102233.41;5048542;28;20025;-68
2023/05/02 02:02:33;;;;;;;6.30;1.20;;;;;;;19.13;49.65;102228.38;5037165;28;20116;-68
2023/05/02 02:05:01;;;;;;;2.37;1.30;;;;;;;18.57;51.56;102235.81;5030511;28;20026;-69
2023/05/02 02:07:27;;;;;;;3.77;1.30;;;;;;;17.94;51.78;102245.84;5049059;28;20481;-68
2023/05/02 02:09:52;;;;;;;3.30;1.40;;;;;;;18.40;50.46;102246.75;5050190;28;20029;-69
2023/05/02 02:12:29;;;;;;;5.13;1.33;;;;;;;17.95;50.93;102252.91;5049103;28;20382;-69
2023/05/02 02:15:15;;;;;;;3.37;2.20;;;;;;;18.40;49.68;102254.69;5045940;28;20025;-69
2023/05/02 02:17:48;;;;;;;3.13;1.13;;;;;;;17.60;52.80;102259.66;5044165;28;20512;-69
2023/05/02 02:20:15;;;;;;;2.57;1.10;;;;;;;18.04;50.92;102265.06;5048672;28;20109;-68
2023/05/02 02:22:43;;;;;;;4.60;1.10;;;;;;;19.04;48.23;102260.41;5048623;28;20111;-69
2023/05/02 02:25:15;;;;;;;4.03;0.97;;;;;;;19.23;47.62;102271.44;5046955;28;20021;-70
2023/05/02 02:27:40;;;;;;;2.65;0.90;;;;;;;18.02;50.42;102270.41;5034538;28;20029;-69
2023/05/02 02:30:08;;;;;;;2.93;1.13;;;;;;;18.65;48.09;102265.63;5048049;28;20040;-69
2023/05/02 02:32:33;;;;;;;1.17;0.67;;;;;;;17.68;50.48;102278.91;5041686;28;20035;-68
2023/05/02 02:34:59;;;;;;;2.80;1.27;;;;;;;18.07;49.71;102281.78;5047281;28;20481;-69
2023/05/02 02:37:30;;;;;;;2.37;0.70;;;;;;;16.87;52.60;102280.97;5047754;28;20079;-69
2023/05/02 02:40:18;;;;;;;1.83;0.83;;;;;;;17.67;49.08;102282.44;5047597;28;20033;-69
2023/05/02 02:43:07;;;;;;;2.73;0.57;;;;;;;17.56;48.86;102297.63;5049820;28;20481;-69
2023/05/02 02:45:38;;;;;;;2.53;0.80;;;;;;;17.97;48.00;102286.38;5044717;28;20036;-69
2023/05/02 02:48:29;;;;;;;0.30;0.30;;;;;;;17.54;48.11;102294.13;5064032;28;20033;-69
2023/05/02 02:51:00;;;;;;;1.17;0.63;;;;;;;17.59;49.19;102301.06;5048371;28;20090;-68
2023/05/02 02:53:36;;;;;;;3.67;0.50;;;;;;;18.46;46.20;102295.16;5047503;28;20084;-69
2023/05/02 02:56:11;;;;;;;2.73;0.50;;;;;;;18.07;46.37;102292.34;5048668;28;20037;-69
2023/05/02 02:58:50;;;;;;;2.23;0.60;;;;;;;17.58;48.32;102306.38;5048275;28;20032;-68
2023/05/02 03:01:21;;;;;;;2.00;0.40;;;;;;;16.55;49.03;102308.66;5059156;28;20076;-68
2023/05/02 03:03:48;;;;;;;2.30;0.70;;;;;;;17.52;48.02;102306.50;5029453;28;20051;-68
2023/05/02 03:06:15;;;;;;;1.40;0.40;;;;;;;17.45;47.28;102317.16;5049877;28;20052;-69
2023/05/02 03:08:42;;;;;;;3.37;0.60;;;;;;;18.62;44.86;102308.06;5048609;28;20090;-68
2023/05/02 03:11:08;;;;;;;0.67;0.40;;;;;;;18.52;45.12;102299.47;5048020;28;20033;-69
2023/05/02 03:13:34;;;;;;;2.27;0.50;;;;;;;17.42;46.02;102314.56;5043932;28;20068;-69
2023/05/02 03:16:20;;;;;;;1.27;0.50;;;;;;;16.90;49.47;102317.94;5040027;28;20033;-68
2023/05/02 03:18:45;;;;;;;0.57;0.50;;;;;;;16.55;49.24;102319.22;5029121;28;20049;-68
2023/05/02 03:21:11;;;;;;;4.37;0.70;;;;;;;17.74;46.48;102323.75;5031578;28;20397;-69
2023/05/02 03:23:36;;;;;;;2.00;0.40;;;;;;;18.13;45.17;102324.00;5032630;28;20061;-69
2023/05/02 03:26:01;;;;;;;1.63;0.60;;;;;;;18.65;44.68;102321.25;5035192;28;20028;-69
2023/05/02 03:28:27;;;;;;;2.43;0.63;;;;;;;17.69;46.69;102330.88;5044938;28;20091;-69
2023/05/02 03:30:52;;;;;;;0.70;0.47;;;;;;;18.93;44.41;102331.28;5031164;28;20513;-69
2023/05/02 03:33:18;;;;;;;0.60;0.50;;;;;;;18.57;44.65;102336.41;5031277;28;20183;-69
2023/05/02 03:35:43;;;;;;;1.03;0.50;;;;;;;17.33;46.56;102346.41;5031721;28;20055;-70
2023/05/02 03:38:09;;;;;;;0.40;0.40;;;;;;;17.26;47.70;102344.75;5030789;28;20029;-70
2023/05/02 03:40:34;;;;;;;0.97;0.60;;;;;;;16.70;48.10;102340.13;5033962;28;20182;-68
2023/05/02 03:42:59;;;;;;;1.97;0.50;;;;;;;17.74;46.11;102352.84;5051062;28;20048;-70
2023/05/02 03:45:25;;;;;;;0.90;0.50;;;;;;;18.44;43.94;102354.31;5052306;28;20055;-70
2023/05/02 03:47:50;;;;;;;2.10;0.60;;;;;;;17.06;47.21;102363.50;5046116;28;20393;-69
2023/05/02 03:50:16;;;;;;;2.83;0.60;;;;;;;16.88;47.81;102364.59;5030188;28;20506;-70
2023/05/02 03:52:41;;;;;;;3.53;0.67;;;;;;;16.89;48.00;102359.31;5032711;28;20469;-68
2023/05/02 03:55:06;;;;;;;5.13;0.60;;;;;;;16.59;47.95;102364.00;5031810;28;20394;-70
2023/05/02 03:57:32;;;;;;;1.67;0.53;;;;;;;17.01;47.62;102355.66;5047135;28;20442;-68
2023/05/02 03:59:57;;;;;;;5.63;0.80;;;;;;;17.72;45.45;102359.94;5031395;28;20076;-69
2023/05/02 04:02:24;;;;;;;0.80;0.70;;;;;;;17.31;45.46;102374.63;5030869;28;20029;-69
2023/05/02 04:04:49;;;;;;;2.80;0.50;;;;;;;16.71;45.82;102362.16;5030632;28;20029;-70
2023/05/02 04:07:18;;;;;;;2.60;0.60;;;;;;;17.39;45.14;102371.88;5041711;28;20020;-69
2023/05/02 04:09:44;;;;;;;0.40;0.40;;;;;;;16.61;46.18;102366.66;5032717;28;20033;-70
2023/05/02 04:12:10;;;;;;;1.50;0.47;;;;;;;17.21;44.18;102381.78;5029625;28;20044;-70
2023/05/02 04:14:35;;;;;;;0.40;0.30;;;;;;;17.40;43.95;102378.91;5031105;28;20037;-69
2023/05/02 04:17:00;;;;;;;0.77;0.40;;;;;;;17.18;43.82;102386.25;5030938;28;20033;-68
2023/05/02 04:19:26;;;;;;;1.67;0.60;;;;;;;16.17;46.11;102389.06;5029576;28;20029;-69
2023/05/02 04:21:51;;;;;;;0.77;0.63;;;;;;;17.13;44.70;102386.31;5040943;28;20484;-69
2023/05/02 04:24:17;;;;;;;0.60;0.50;;;;;;;16.62;45.55;102389.50;5051593;28;20052;-70
2023/05/02 04:26:43;;;;;;;0.83;0.60;;;;;;;18.27;42.39;102386.38;5049216;28;20033;-69
2023/05/02 04:29:08;;;;;;;0.60;0.33;;;;;;;17.53;42.81;102387.53;5039067;28;20377;-70
2023/05/02 04:31:34;;;;;;;3.63;0.80;;;;;;;18.33;42.86;102388.03;5031856;28;20401;-70
2023/05/02 04:33:59;;;;;;;0.40;0.40;;;;;;;17.88;42.97;102402.00;5031459;28;20025;-69
2023/05/02 04:36:27;;;;;;;1.67;0.57;;;;;;;16.99;43.85;102404.09;5035484;28;20540;-69
2023/05/02 04:38:52;;;;;;;1.50;0.77;;;;;;;16.66;44.90;102411.47;5050995;28;20102;-69
2023/05/02 04:41:18;;;;;;;4.53;0.97;;;;;;;17.60;43.63;102419.16;5050672;28;20108;-69
2023/05/02 04:43:43;;;;;;;0.30;0.30;;;;;;;16.83;43.75;102417.47;5051619;28;20031;-70
2023/05/02 04:46:09;;;;;;;1.80;0.43;;;;;;;17.31;43.84;102427.50;5050596;28;20029;-69
2023/05/02 04:48:34;;;;;;;3.10;0.40;;;;;;;17.36;44.32;102433.56;5051839;28;20044;-68
2023/05/02 04:50:59;;;;;;;1.37;0.40;;;;;;;18.81;41.53;102427.78;5040173;28;20031;-69
2023/05/02 04:53:25;;;;;;;1.53;0.50;;;;;;;17.66;42.98;102449.91;5048972;28;20292;-69
2023/05/02 04:55:51;;;;;;;0.50;0.40;;;;;;;17.22;43.89;102441.69;5050347;28;20436;-69
2023/05/02 04:58:16;;;;;;;1.57;0.70;;;;;;;17.71;43.65;102445.44;5051067;28;20029;-69
2023/05/02 05:00:42;;;;;;;0.60;0.50;;;;;;;16.99;44.83;102446.38;5043062;28;20060;-70
2023/05/02 05:03:07;;;;;;;1.60;0.60;;;;;;;18.24;42.17;102444.66;5030751;28;20029;-69
2023/05/02 05:05:33;;;;;;;0.77;0.40;;;;;;;18.03;42.23;102444.13;5034946;28;20037;-69
2023/05/02 05:07:59;;;;;;;2.43;0.50;;;;;;;17.45;43.33;102444.03;5030698;28;20021;-70
2023/05/02 05:10:24;;;;;;;0.30;0.30;;;;;;;16.54;45.15;102454.69;5032556;28;20568;-69
2023/05/02 05:12:50;;;;;;;0.83;0.40;;;;;;;17.59;43.43;102453.56;5050967;28;20025;-69
2023/05/02 05:15:15;;;;;;;3.70;1.37;;;;;;;18.30;42.43;102455.16;5048884;28;20028;-69
2023/05/02 05:17:41;;;;;;;1.00;0.40;;;;;;;17.51;43.69;102460.72;5051114;28;20068;-68
2023/05/02 05:20:08;;;;;;;1.20;0.60;;;;;;;16.78;44.98;102464.16;5048198;28;20028;-69
2023/05/02 05:22:40;;;;;;;2.77;0.97;;;;;;;17.04;43.79;102471.84;5028768;28;20040;-69
2023/05/02 05:25:07;;;;;;;5.68;0.80;;;;;;;16.98;43.19;102460.47;5030405;28;20401;-68
2023/05/02 05:27:36;;;;;;;5.67;0.87;;;;;;;16.10;45.15;102470.91;5062767;28;20025;-70
2023/05/02 05:30:05;;;;;;;2.43;1.00;;;;;;;16.54;44.57;102476.72;5030624;28;20060;-70
2023/05/02 05:32:32;;;;;;;2.43;0.50;;;;;;;17.05;43.49;102468.31;5050139;28;20094;-70
2023/05/02 05:34:57;;;;;;;4.30;2.13;;;;;;;16.17;45.28;102481.38;5049381;28;20489;-69
2023/05/02 05:37:23;;;;;;;1.77;0.73;;;;;;;16.69;44.24;102480.09;5048418;28;20356;-69
2023/05/02 05:39:48;;;;;;;1.63;0.60;;;;;;;17.93;41.76;102490.13;5049267;28;20035;-70
2023/05/02 05:42:14;;;;;;;0.63;0.60;;;;;;;16.43;44.68;102490.00;5037396;28;20029;-70
2023/05/02 05:44:39;;;;;;;2.87;0.80;;;;;;;15.88;45.65;102500.91;5048589;28;20025;-70
2023/05/02 05:47:05;;;;;;;0.70;0.70;;;;;;;17.70;42.89;102496.56;5048824;28;20059;-70
2023/05/02 05:49:30;;;;;;;2.00;0.63;;;;;;;17.36;43.15;102504.94;5048645;28;20500;-69
2023/05/02 05:51:56;;;;;;;1.33;0.97;;;;;;;18.05;42.06;102511.13;5050456;28;20102;-70
2023/05/02 05:54:21;;;;;;;1.73;0.80;;;;;;;17.25;42.73;102522.69;5048650;28;20558;-69
2023/05/02 05:56:47;;;;;;;3.53;1.00;;;;;;;17.85;41.47;102518.44;5048701;28;20033;-69
2023/05/02 05:59:12;;;;;;;2.73;0.70;;;;;;;17.28;42.25;102520.00;5049178;28;20021;-70
2023/05/02 06:01:38;;;;;;;0.80;0.57;;;;;;;16.06;43.35;102529.84;5032464;28;20021;-70
2023/05/02 06:04:04;;;;;;;1.60;0.90;;;;;;;17.74;41.80;102527.38;5028090;28;20108;-69
2023/05/02 06:06:33;;;;;;;1.50;0.80;;;;;;;18.03;40.76;102536.72;5028592;28;20386;-70
2023/05/02 06:08:59;;;;;;;0.73;0.57;;;;;;;18.16;40.33;102539.19;5030143;28;20067;-71
2023/05/02 06:11:25;;;;;;;2.77;0.90;;;;;;;19.34;38.57;102538.94;5035438;28;20017;-69
2023/05/02 06:13:51;;;;;;;3.63;0.60;;;;;;;17.60;40.88;102545.19;5048510;28;20061;-69
2023/05/02 06:16:19;;;;;;;0.70;0.60;;;;;;;18.07;39.27;102546.34;5034159;28;20025;-71
2023/05/02 06:18:45;;;;;;;1.57;0.80;;;;;;;18.27;39.84;102554.00;5028017;28;20022;-70
2023/05/02 06:21:11;;;;;;;2.53;0.80;;;;;;;18.84;38.74;102554.00;5029562;28;20113;-69
2023/05/02 06:23:36;;;;;;;1.60;0.50;;;;;;;17.77;39.24;102556.41;5029921;28;20436;-71
2023/05/02 06:26:03;;;;;;;0.50;0.50;;;;;;;17.33;40.06;102551.69;5027709;28;20457;-70
2023/05/02 06:28:30;;;;;;;0.70;0.70;;;;;;;17.99;38.79;102561.47;5028678;28;20044;-69
2023/05/02 06:31:00;;;;;;;2.87;1.27;;;;;;;16.96;41.09;102574.06;5034028;28;20025;-70
2023/05/02 06:33:27;;;;;;;1.53;1.03;;;;;;;17.89;40.49;102567.75;5047126;28;20033;-70
2023/05/02 06:35:53;;;;;;;0.90;0.60;;;;;;;18.04;38.81;102572.88;5040263;28;20021;-70
2023/05/02 06:38:18;;;;;;;3.37;0.50;;;;;;;17.19;39.97;102587.03;5027987;28;20029;-70
2023/05/02 06:40:44;;;;;;;1.57;1.10;;;;;;;16.54;41.79;102581.41;5031464;28;20092;-70
2023/05/02 06:43:10;;;;;;;0.50;0.47;;;;;;;16.82;40.75;102587.34;5049072;28;20013;-70
2023/05/02 06:45:36;;;;;;;2.83;1.33;;;;;;;16.19;43.48;102586.03;5048475;28;20033;-70
2023/05/02 06:48:01;;;;;;;3.07;0.77;;;;;;;17.67;40.76;102597.09;5043760;28;20111;-70
2023/05/02 06:50:28;;;;;;;5.57;0.70;;;;;;;16.52;43.16;102604.31;5045317;28;20033;-70
2023/05/02 06:52:53;;;;;;;7.43;1.00;;;;;;;16.10;43.29;102602.78;5027106;28;20049;-70
2023/05/02 06:55:19;;;;;;;1.60;0.83;;;;;;;16.54;43.17;102618.34;5027766;28;20140;-70
2023/05/02 06:57:45;;;;;;;0.80;0.80;;;;;;;17.01;42.54;102614.50;5047981;28;20106;-69
2023/05/02 07:00:11;;;;;;;2.13;1.10;;;;;;;16.77;42.75;102616.44;5046943;28;20033;-70
2023/05/02 07:02:36;;;;;;;2.57;0.90;;;;;;;16.99;42.39;102616.28;5030629;28;20030;-70
2023/05/02 07:05:02;;;;;;;4.80;0.70;;;;;;;16.73;41.71;102611.19;5028097;28;20022;-69
2023/05/02 07:07:27;;;;;;;8.33;1.53;;;;;;;17.74;39.99;102616.44;5027134;28;20108;-70
2023/05/02 07:09:52;;;;;;;2.67;0.77;;;;;;;17.62;39.89;102618.28;5028115;28;20033;-70
2023/05/02 07:12:18;;;;;;;1.87;1.03;;;;;;;17.32;39.09;102622.13;5029047;28;20037;-71
2023/05/02 07:14:45;;;;;;;2.63;0.90;;;;;;;17.73;37.86;102631.41;5043835;28;20033;-69
2023/05/02 07:17:11;;;;;;;1.53;0.50;;;;;;;18.59;37.14;102633.84;5033926;28;20436;-70
2023/05/02 07:19:36;;;;;;;0.93;0.67;;;;;;;17.66;38.03;102635.00;5047958;28;20086;-70
2023/05/02 07:22:02;;;;;;;1.73;0.80;;;;;;;19.00;36.82;102635.00;5036320;28;20052;-71
2023/05/02 07:24:27;;;;;;;1.77;0.73;;;;;;;19.55;36.37;102637.53;5043311;28;20021;-70
2023/05/02 07:26:52;;;;;;;1.80;1.70;;;;;;;17.97;37.08;102634.69;5047774;28;20488;-69
2023/05/02 07:29:17;;;;;;;0.63;0.50;;;;;;;18.35;37.19;102630.63;5047209;28;20036;-70
2023/05/02 07:31:43;;;;;;;1.67;0.70;;;;;;;18.56;37.55;102637.41;5047146;28;20497;-69
2023/05/02 07:34:08;;;;;;;1.30;0.70;;;;;;;18.51;37.82;102630.44;5047465;28;20025;-69
2023/05/02 07:36:33;;;;;;;1.40;0.77;;;;;;;19.46;36.20;102644.75;5047267;28;20127;-69
2023/05/02 07:38:59;;;;;;;1.23;0.53;;;;;;;20.48;34.98;102639.16;5047712;28;20040;-70
2023/05/02 07:41:24;;;;;;;0.98;0.50;;;;;;;19.66;34.82;102647.03;5041552;28;20026;-70
2023/05/02 07:43:50;;;;;;;0.88;0.47;;;;;;;21.28;33.76;102639.88;5026788;28;20040;-70
2023/05/02 07:46:15;;;;;;;0.77;0.65;;;;;;;21.68;32.25;102645.91;5028713;28;20072;-69
2023/05/02 07:48:41;;;;;;;1.15;0.40;;;;;;;19.87;33.38;102667.91;5027900;28;20033;-70
2023/05/02 07:51:08;;;;;;;4.90;0.47;;;;;;;19.54;33.57;102659.66;5029957;28;20433;-70
2023/05/02 07:53:34;;;;;;;2.08;0.60;;;;;;;19.46;33.70;102663.31;5047199;28;20049;-70
2023/05/02 07:56:00;;;;;;;0.40;0.40;;;;;;;20.41;32.42;102662.31;5047393;28;20020;-69
2023/05/02 07:58:26;;;;;;;1.33;1.23;;;;;;;22.72;29.31;102658.78;5047051;28;20033;-69
2023/05/02 08:00:51;;;;;;;1.17;0.45;;;;;;;21.47;31.48;102661.53;5046974;28;20021;-70
2023/05/02 08:03:16;;;;;;;2.17;0.40;;;;;;;19.53;33.40;102677.34;5026649;28;20116;-70
2023/05/02 08:05:42;;;;;;;1.00;0.40;;;;;;;20.70;31.96;102663.44;5029812;28;20029;-69
2023/05/02 08:08:07;;;;;;;1.70;0.80;;;;;;;20.28;31.97;102671.47;5030722;28;20068;-70
2023/05/02 08:10:32;;;;;;;0.75;0.35;;;;;;;18.84;33.81;102681.16;5030418;28;20075;-71
2023/05/02 08:12:58;;;;;;;1.67;0.40;;;;;;;20.67;31.29;102672.31;5045151;28;20021;-70
2023/05/02 08:15:23;;;;;;;2.35;0.40;;;;;;;20.30;30.83;102696.19;5050553;28;20044;-70
2023/05/02 08:17:49;;;;;;;1.65;0.40;;;;;;;20.83;29.61;102675.53;5051539;28;20126;-70
2023/05/02 08:20:14;;;;;;;0.47;0.47;;;;;;;22.32;27.51;102683.06;5051794;28;20082;-71
2023/05/02 08:22:39;;;;;;;1.90;0.65;;;;;;;23.41;26.81;102675.16;5039074;28;20037;-71
2023/05/02 08:25:05;;;;;;;1.17;0.50;;;;;;;24.77;25.73;102680.75;5035386;28;20037;-71
2023/05/02 08:27:30;;;;;;;1.13;0.40;;;;;;;24.09;24.60;102677.19;5050791;28;20032;-70
2023/05/02 08:29:56;;;;;;;4.13;0.93;;;;;;;24.60;24.21;102672.53;5049689;28;20444;-71
2023/05/02 08:32:21;;;;;;;0.47;0.47;;;;;;;21.80;27.57;102690.81;5048515;28;20037;-70
2023/05/02 08:34:46;;;;;;;2.28;0.40;;;;;;;22.80;27.15;102684.25;5050391;28;20114;-71
2023/05/02 08:37:12;;;;;;;2.28;0.77;;;;;;;21.08;27.57;102700.66;5051357;28;20036;-70
2023/05/02 08:39:37;;;;;;;1.65;0.68;;;;;;;20.39;28.96;102698.66;5039465;28;20033;-70
2023/05/02 08:42:07;;;;;;;1.75;0.65;;;;;;;21.59;28.13;102702.03;5032076;28;20036;-70
2023/05/02 08:44:32;;;;;;;1.42;0.98;;;;;;;20.33;29.96;102706.75;5030736;28;20026;-71
2023/05/02 08:46:59;;;;;;;2.13;0.70;;;;;;;20.20;30.29;102721.22;5031180;28;20033;-70
2023/05/02 08:49:27;;;;;;;3.10;0.80;;;;;;;19.93;29.93;102724.34;5029717;28;20083;-70
2023/05/02 08:51:55;;;;;;;2.63;0.60;;;;;;;20.26;29.76;102716.63;5030144;28;20037;-70
2023/05/02 08:54:24;;;;;;;2.65;0.50;;;;;;;21.40;28.49;102715.78;5030200;28;20049;-70
2023/05/02 08:56:50;;;;;;;2.72;0.60;;;;;;;20.73;29.13;102718.31;5030252;28;20508;-70
2023/05/02 08:59:16;;;;;;;1.05;0.90;;;;;;;21.88;27.62;102719.84;5029893;28;20497;-71
2023/05/02 09:01:43;;;;;;;0.50;0.45;;;;;;;23.13;26.66;102718.78;5029394;28;20033;-70
2023/05/02 09:04:10;;;;;;;1.45;0.43;;;;;;;22.24;26.04;102716.19;5029682;28;20029;-70
2023/05/02 09:06:35;;;;;;;3.15;0.60;;;;;;;21.72;27.44;102719.41;5030911;28;20485;-70
2023/05/02 09:09:00;;;;;;;2.40;0.40;;;;;;;19.76;29.70;102727.31;5031605;28;20071;-70
2023/05/02 09:11:26;;;;;;;1.05;0.82;;;;;;;20.91;27.62;102724.97;5029477;28;20056;-70
2023/05/02 09:13:51;;;;;;;1.05;0.50;;;;;;;19.86;29.21;102732.50;5028950;28;20378;-69
2023/05/02 09:16:22;;;;;;;1.13;0.50;;;;;;;20.51;28.48;102738.22;5029450;28;20124;-71
2023/05/02 09:18:49;;;;;;;2.55;0.57;;;;;;;19.56;29.69;102742.72;5031175;28;20108;-70
2023/05/02 09:21:17;;;;;;;3.50;0.68;;;;;;;20.41;27.84;102739.31;5029869;28;20115;-70
2023/05/02 09:23:50;;;;;;;0.63;0.50;;;;;;;20.17;27.65;102749.56;5032631;28;20473;-71
2023/05/02 09:26:16;;;;;;;;;;;;;;;22.28;26.46;102740.00;5049870;28;20221;-70
2023/05/02 09:28:47;;;;;;;3.38;0.47;;;;;;;23.19;24.13;102739.91;5050318;28;19909;-71
2023/05/02 09:31:16;;;;;;;2.10;0.40;;;;;;;24.63;23.36;102728.56;5049045;28;20078;-70
2023/05/02 09:33:41;;;;;;;0.88;0.40;;;;;;;24.76;22.50;102731.59;5044418;28;20034;-70
2023/05/02 09:36:09;;;;;;;2.05;0.75;;;;;;;25.16;22.53;102729.97;5044944;28;20040;-70
2023/05/02 09:38:35;;;;;;;1.38;0.77;;;;;;;25.28;22.46;102739.28;5050830;28;20056;-70
2023/05/02 09:41:02;;;;;;;0.40;0.40;;;;;;;25.79;22.32;102745.13;5049500;28;20468;-71
2023/05/02 09:43:28;;;;;;;1.15;0.40;;;;;;;22.90;23.83;102761.28;5045632;28;20116;-70
2023/05/02 09:46:07;;;;;;;0.35;0.32;;;;;;;24.92;22.36;102742.56;5030671;28;20212;-70
2023/05/02 09:48:55;;;;;;;2.78;0.65;;;;;;;26.39;21.62;102758.50;5029110;28;20547;-70
2023/05/02 09:51:22;;;;;;;1.15;0.43;;;;;;;26.35;20.94;102740.84;5048962;28;20033;-71
2023/05/02 09:53:47;;;;;;;0.55;0.50;;;;;;;24.74;22.38;102750.38;5042594;28;20073;-70
2023/05/02 09:56:13;;;;;;;2.90;0.40;;;;;;;23.00;24.96;102760.09;5052654;28;20060;-70
2023/05/02 09:58:38;;;;;;;2.63;1.60;;;;;;;22.45;25.19;102768.84;5045867;28;20044;-70
2023/05/02 10:01:04;;;;;;;1.40;0.73;;;;;;;22.50;26.08;102764.28;5053635;28;20361;-71
2023/05/02 10:03:31;;;;;;;2.80;0.60;;;;;;;22.32;24.72;102767.44;5053555;28;20029;-71
2023/05/02 10:05:57;;;;;;;0.88;0.60;;;;;;;22.19;24.63;102762.47;5051966;28;20033;-70
2023/05/02 10:08:27;;;;;;;0.50;0.50;;;;;;;23.40;23.36;102758.78;5048541;28;20028;-69
2023/05/02 10:10:56;;;;;;;1.38;0.38;;;;;;;23.63;23.73;102759.78;5048314;28;20133;-71
2023/05/02 10:13:25;;;;;;;0.57;0.50;;;;;;;24.45;23.38;102755.03;5047367;28;20106;-70
2023/05/02 10:16:00;;;;;;;0.57;0.50;;;;;;;25.61;22.17;102754.84;5049615;28;20397;-70
2023/05/02 10:18:51;;;;;;;0.75;0.52;;;;;;;23.97;22.76;102763.97;5047174;28;20091;-71
2023/05/02 10:21:24;;;;;;;2.20;0.70;;;;;;;25.28;21.70;102755.34;5033701;28;20033;-71
2023/05/02 10:23:52;;;;;;;0.88;0.50;;;;;;;23.60;22.55;102776.78;5043705;28;20075;-71
2023/05/02 10:26:20;;;;;;;5.55;1.40;;;;;;;24.63;22.23;102763.31;5049845;28;20416;-71
2023/05/02 10:28:45;;;;;;;1.00;0.65;;;;;;;25.71;21.74;102765.09;5046569;28;20033;-70
2023/05/02 10:31:13;;;;;;;1.45;0.52;;;;;;;24.86;21.46;102773.09;5044797;28;20102;-71
2023/05/02 10:33:38;;;;;;;1.48;0.75;;;;;;;24.07;22.58;102775.19;5050314;28;20021;-71
2023/05/02 10:36:06;;;;;;;2.80;0.70;;;;;;;26.07;21.46;102764.41;5045900;28;20083;-70
2023/05/02 10:38:31;;;;;;;1.33;0.70;;;;;;;25.88;20.39;102767.06;5047844;28;20031;-71
2023/05/02 10:41:00;;;;;;;1.50;0.88;;;;;;;24.51;21.29;102776.19;5050134;28;20025;-70
2023/05/02 10:43:30;;;;;;;3.65;0.90;;;;;;;26.63;21.68;102767.22;5048264;28;20054;-70
2023/05/02 10:45:56;;;;;;;0.65;0.65;;;;;;;27.46;18.85;102762.28;5047243;28;20025;-70
2023/05/02 10:48:26;;;;;;;1.90;0.50;;;;;;;28.60;18.96;102769.63;5028124;28;20102;-71
2023/05/02 10:50:56;;;;;;;1.45;1.33;;;;;;;26.28;19.41;102779.59;5035056;28;20024;-71
2023/05/02 10:53:21;;;;;;;1.30;0.68;;;;;;;26.31;20.51;102774.09;5047157;28;20040;-70
2023/05/02 10:56:15;;;;;;;1.10;0.70;;;;;;;26.40;19.35;102773.66;5049555;28;20358;-70
2023/05/02 10:58:43;;;;;;;1.17;0.90;;;;;;;26.22;20.51;102765.53;5029437;28;20041;-71
2023/05/02 11:01:23;;;;;;;2.63;0.90;;;;;;;23.59;23.32;102782.16;5028390;28;20083;-70
2023/05/02 11:03:56;;;;;;;0.93;0.70;;;;;;;23.88;23.93;102776.72;5029523;28;20029;-70
2023/05/02 11:06:21;;;;;;;;;;;;;;;25.40;21.74;102770.91;5033046;28;20103;-71
2023/05/02 11:08:47;;;;;;;1.17;0.57;;;;;;;23.49;22.85;102776.28;5028127;28;19972;-71
2023/05/02 11:11:39;;;;;;;0.68;0.68;;;;;;;25.33;22.68;102782.81;5029079;28;20029;-70
2023/05/02 11:14:05;;;;;;;0.55;0.45;;;;;;;24.21;22.26;102789.78;5026964;28;20029;-70
2023/05/02 11:17:05;;;;;;;2.83;0.75;;;;;;;24.27;23.97;102785.13;5028256;28;20021;-71
2023/05/02 11:19:36;;;;;;;3.38;0.70;;;;;;;23.02;23.71;102800.88;5028531;28;20037;-70
2023/05/02 11:22:20;;;;;;;1.10;0.90;;;;;;;25.40;22.55;102792.31;5059979;28;20036;-70
2023/05/02 11:24:47;;;;;;;0.85;0.77;;;;;;;25.28;23.19;102782.09;5049436;28;20112;-71
2023/05/02 11:27:27;;;;;;;3.17;0.80;;;;;;;24.72;22.51;102779.00;5048190;28;20029;-71